Time;durP1;ratioP1;P1;durP2;ratioP2;P2;SDS_P1;SDS_P2;PMS_P1;PMS_P2;Temp;Humidity;BMP_temperature;BMP_pressure;BME280_temperature;BME280_humidity;BME280_pressure;Samples;Min_cycle;Max_cycle;Signal;HPM_P1;HPM_P2
2024/01/20 00:01:42;;;;;;;53.78;17.02;;;;;;;;;;5111370;28;20502;-73
2024/01/20 00:04:46;;;;;;;54.00;17.13;;;;;;;;;;5110212;28;20062;-73
2024/01/20 00:07:51;;;;;;;49.33;18.35;;;;;;;;;;5110771;28;20031;-73
2024/01/20 00:10:55;;;;;;;50.55;16.40;;;;;;;;;;5110949;28;20039;-74
2024/01/20 00:13:59;;;;;;;51.33;16.08;;;;;;;;;;5111196;28;20054;-73
2024/01/20 00:17:04;;;;;;;55.40;16.10;;;;;;;;;;5110064;28;20039;-73
2024/01/20 00:20:09;;;;;;;59.67;16.95;;;;;;;;;;5098188;28;20071;-74
2024/01/20 00:23:13;;;;;;;58.92;17.50;;;16.20;99.90;;;;;;5110931;28;20051;-74
2024/01/20 00:26:17;;;;;;;58.33;19.05;;;;;;;;;;5110839;28;20050;-74
2024/01/20 00:29:21;;;;;;;50.88;17.75;;;;;;;;;;5110710;28;20042;-74
2024/01/20 00:32:26;;;;;;;59.00;17.92;;;;;;;;;;5115083;28;20504;-74
2024/01/20 00:35:30;;;;;;;51.92;17.35;;;;;;;;;;5114709;28;20047;-74
2024/01/20 00:38:38;;;;;;;52.50;16.92;;;;;;;;;;5114460;28;20043;-74
2024/01/20 00:41:43;;;;;;;54.15;17.40;;;;;;;;;;5113534;28;20038;-74
2024/01/20 00:44:47;;;;;;;59.10;19.17;;;;;;;;;;5114550;28;20055;-74
2024/01/20 00:47:51;;;;;;;65.65;22.35;;;;;;;;;;5114669;28;20046;-74
2024/01/20 00:50:56;;;;;;;19.48;7.40;;;;;;;;;;5114216;28;20510;-74
2024/01/20 00:54:00;;;;;;;11.80;4.30;;;;;;;;;;5114575;28;20032;-73
2024/01/20 00:57:04;;;;;;;10.43;3.03;;;;;;;;;;5113998;28;20040;-74
2024/01/20 01:00:09;;;;;;;9.73;1.90;;;;;;;;;;5114359;28;20074;-73
2024/01/20 01:03:14;;;;;;;8.23;1.00;;;;;;;;;;5114338;28;20040;-73
2024/01/20 01:06:18;;;;;;;3.85;0.70;;;;;;;;;;5114074;28;20043;-73
2024/01/20 01:09:22;;;;;;;1.65;0.73;;;;;;;;;;5113468;28;20031;-73
2024/01/20 01:12:27;;;;;;;1.80;0.70;;;;;;;;;;5114157;28;20035;-73
2024/01/20 01:15:32;;;;;;;6.80;1.20;;;;;;;;;;5112908;28;20031;-73
2024/01/20 01:18:36;;;;;;;2.30;0.60;;;;;;;;;;5113574;28;20036;-73
2024/01/20 01:21:40;;;;;;;3.20;0.98;;;;;;;;;;5113626;28;20047;-73
2024/01/20 01:24:45;;;;;;;4.07;0.70;;;;;;;;;;5113864;28;20040;-73
2024/01/20 01:27:49;;;;;;;3.83;0.80;;;;;;;;;;5113878;28;20565;-73
2024/01/20 01:30:54;;;;;;;2.22;0.70;;;;;;;;;;5113809;28;20040;-73
2024/01/20 01:33:58;;;;;;;3.10;0.88;;;;;;;;;;5113741;28;20039;-73
2024/01/20 01:37:02;;;;;;;4.53;0.77;;;;;;;;;;5113443;28;20368;-74
2024/01/20 01:40:07;;;;;;;3.10;0.70;;;;;;;;;;5113588;28;20036;-73
2024/01/20 01:43:11;;;;;;;4.05;0.80;;;;;;;;;;5113451;28;20036;-72
2024/01/20 01:46:15;;;;;;;2.97;0.50;;;;;;;;;;5112984;28;20047;-72
2024/01/20 01:49:22;;;;;;;3.90;1.42;;;11.70;99.90;;;;;;5113496;28;20043;-73
2024/01/20 01:52:26;;;;;;;3.65;1.23;;;12.40;99.90;;;;;;5112941;28;20043;-73
2024/01/20 01:55:32;;;;;;;1.50;0.50;;;12.20;99.90;;;;;;5113453;28;20058;-74
2024/01/20 01:58:35;;;;;;;2.55;0.40;;;11.70;99.90;;;;;;5113212;28;20505;-73
2024/01/20 02:01:40;;;;;;;5.25;0.50;;;11.70;99.90;;;;;;5113096;28;20043;-73
2024/01/20 02:04:44;;;;;;;2.38;0.38;;;12.30;99.90;;;;;;5112873;28;20054;-73
2024/01/20 02:07:49;;;;;;;1.65;0.40;;;12.30;99.90;;;;;;5112903;28;20050;-73
2024/01/20 02:10:54;;;;;;;0.50;0.30;;;12.00;99.90;;;;;;5113111;28;20047;-72
2024/01/20 02:13:58;;;;;;;0.65;0.40;;;11.70;99.90;;;;;;5112930;28;20039;-72
2024/01/20 02:17:06;;;;;;;0.98;0.40;;;13.60;99.90;;;;;;5111631;28;20039;-73
2024/01/20 02:20:10;;;;;;;0.75;0.38;;;11.80;99.90;;;;;;5112368;28;20055;-73
2024/01/20 02:23:14;;;;;;;1.65;0.30;;;13.40;99.90;;;;;;5112529;28;20586;-72
2024/01/20 02:26:18;;;;;;;0.80;0.30;;;10.00;99.90;;;;;;5112344;28;20047;-73
2024/01/20 02:29:22;;;;;;;0.30;0.30;;;9.70;99.90;;;;;;5112580;28;20047;-72
2024/01/20 02:32:26;;;;;;;0.90;0.25;;;12.80;99.90;;;;;;5111434;28;20151;-73
2024/01/20 02:35:30;;;;;;;0.57;0.40;;;13.60;99.90;;;;;;5111856;28;20050;-73
2024/01/20 02:38:34;;;;;;;0.47;0.40;;;11.50;99.90;;;;;;5111653;28;20506;-72
2024/01/20 02:41:38;;;;;;;1.40;0.43;;;14.00;99.90;;;;;;5113146;28;20038;-73
2024/01/20 02:44:42;;;;;;;1.35;0.30;;;13.50;99.90;;;;;;5112180;28;20514;-73
2024/01/20 02:47:46;;;;;;;3.10;0.30;;;10.70;99.90;;;;;;5112170;28;20053;-74
2024/01/20 02:50:50;;;;;;;1.63;0.73;;;;;;;;;;5112337;28;20031;-73
2024/01/20 02:53:55;;;;;;;1.23;0.45;;;;;;;;;;5111647;28;20479;-73
2024/01/20 02:56:59;;;;;;;0.93;0.30;;;9.00;99.90;;;;;;5111793;28;20048;-73
2024/01/20 03:00:08;;;;;;;0.30;0.30;;;8.90;99.90;;;;;;5112159;28;20043;-73
2024/01/20 03:03:11;;;;;;;1.38;0.30;;;13.20;99.90;;;;;;5111929;28;20031;-74
2024/01/20 03:06:16;;;;;;;2.38;0.73;;;10.50;99.90;;;;;;5110795;28;20051;-74
2024/01/20 03:09:20;;;;;;;2.40;0.98;;;8.60;99.90;;;;;;5111777;28;20046;-73
2024/01/20 03:12:24;;;;;;;1.38;0.40;;;8.10;99.90;;;;;;5111807;28;20486;-73
2024/01/20 03:15:28;;;;;;;0.38;0.32;;;9.60;99.90;;;;;;5111954;28;20040;-73
2024/01/20 03:18:32;;;;;;;0.57;0.57;;;;;;;;;;5111573;28;20040;-73
2024/01/20 03:21:37;;;;;;;0.43;0.43;;;;;;;;;;5111976;28;20040;-74
2024/01/20 03:24:40;;;;;;;0.90;0.40;;;6.80;99.90;;;;;;5111639;28;20031;-74
2024/01/20 03:27:44;;;;;;;2.72;0.55;;;11.30;99.90;;;;;;5110715;28;20464;-74
2024/01/20 03:30:48;;;;;;;0.65;0.40;;;;;;;;;;5111660;28;20046;-75
2024/01/20 03:33:53;;;;;;;0.40;0.40;;;;;;;;;;5110464;28;20035;-73
2024/01/20 03:36:57;;;;;;;0.20;0.20;;;9.10;99.90;;;;;;5111158;28;20530;-74
2024/01/20 03:40:02;;;;;;;0.45;0.40;;;8.60;99.90;;;;;;5111672;28;20388;-73
2024/01/20 03:43:05;;;;;;;0.52;0.40;;;12.40;99.90;;;;;;5110588;28;20040;-74
2024/01/20 03:46:09;;;;;;;0.50;0.30;;;9.40;99.90;;;;;;5111157;28;20050;-73
2024/01/20 03:49:13;;;;;;;0.65;0.40;;;7.20;99.90;;;;;;5111402;28;20036;-73
2024/01/20 03:52:17;;;;;;;1.08;0.30;;;10.50;99.90;;;;;;5098844;28;20052;-73
2024/01/20 03:55:21;;;;;;;2.90;1.08;;;6.90;99.90;;;;;;5111572;28;20043;-72
2024/01/20 03:58:24;;;;;;;0.65;0.40;;;8.90;99.90;;;;;;5111606;28;20480;-73
2024/01/20 04:01:29;;;;;;;0.85;0.43;;;;;;;;;;5111131;28;20035;-73
2024/01/20 04:04:36;;;;;;;0.47;0.30;;;8.80;99.90;;;;;;5112562;28;20384;-74
2024/01/20 04:07:40;;;;;;;0.40;0.30;;;8.50;99.90;;;;;;5115283;28;20486;-74
2024/01/20 04:10:44;;;;;;;0.30;0.30;;;8.70;99.90;;;;;;5115407;28;20027;-73
2024/01/20 04:13:48;;;;;;;2.03;0.30;;;8.70;99.90;;;;;;5115387;28;20356;-73
2024/01/20 04:16:52;;;;;;;0.35;0.35;;;9.10;99.90;;;;;;5115121;28;20372;-72
2024/01/20 04:19:56;;;;;;;2.00;0.40;;;12.30;99.90;;;;;;5102163;28;20056;-72
2024/01/20 04:23:00;;;;;;;0.88;0.40;;;;;;;;;;5114849;28;20050;-73
2024/01/20 04:26:05;;;;;;;1.05;0.40;;;11.90;99.90;;;;;;5113841;28;20048;-73
2024/01/20 04:29:08;;;;;;;0.77;0.30;;;12.70;99.90;;;;;;5115170;28;20395;-73
2024/01/20 04:32:12;;;;;;;3.90;0.40;;;8.50;99.90;;;;;;5114034;28;20046;-72
2024/01/20 04:35:16;;;;;;;0.55;0.45;;;12.60;99.90;;;;;;5114042;28;20035;-73
2024/01/20 04:38:20;;;;;;;0.30;0.30;;;8.30;99.90;;;;;;5115024;28;20034;-73
2024/01/20 04:41:24;;;;;;;0.52;0.40;;;13.80;99.90;;;;;;5113602;28;20035;-73
2024/01/20 04:44:28;;;;;;;0.22;0.22;;;8.60;99.90;;;;;;5114755;28;20043;-73
2024/01/20 04:47:33;;;;;;;0.30;0.30;;;9.60;99.90;;;;;;5114700;28;20035;-72
2024/01/20 04:50:37;;;;;;;1.58;0.60;;;8.40;99.90;;;;;;5114223;28;20035;-73
2024/01/20 04:53:40;;;;;;;0.40;0.40;;;8.70;99.90;;;;;;5114485;28;20035;-72
2024/01/20 04:56:45;;;;;;;0.60;0.40;;;;;;;;;;5114342;28;20036;-73
2024/01/20 04:59:48;;;;;;;0.70;0.40;;;12.40;99.90;;;;;;5113556;28;20043;-73
2024/01/20 05:02:52;;;;;;;0.32;0.32;;;8.40;99.90;;;;;;5113393;28;20046;-73
2024/01/20 05:05:57;;;;;;;0.40;0.40;;;;;;;;;;5113911;28;20047;-73
2024/01/20 05:09:00;;;;;;;0.30;0.30;;;7.50;99.90;;;;;;5113860;28;20028;-73
2024/01/20 05:12:05;;;;;;;2.63;0.50;;;;;;;;;;5113408;28;20039;-73
2024/01/20 05:15:11;;;;;;;0.65;0.40;;;12.30;99.90;;;;;;5114023;28;20040;-73
2024/01/20 05:18:15;;;;;;;2.20;0.30;;;11.50;99.90;;;;;;5113184;28;20506;-72
2024/01/20 05:21:19;;;;;;;0.40;0.40;;;10.20;99.90;;;;;;5113005;28;20054;-73
2024/01/20 05:24:24;;;;;;;0.30;0.30;;;8.20;99.90;;;;;;5101419;28;20050;-72
2024/01/20 05:27:27;;;;;;;0.40;0.40;;;10.20;99.90;;;;;;5113879;28;20048;-74
2024/01/20 05:30:31;;;;;;;0.65;0.35;;;9.80;99.90;;;;;;5113756;28;20042;-74
2024/01/20 05:33:35;;;;;;;1.75;0.40;;;10.10;99.90;;;;;;5113527;28;20043;-74
2024/01/20 05:36:40;;;;;;;0.38;0.38;;;;;;;;;;5113727;28;20051;-75
2024/01/20 05:39:44;;;;;;;1.02;0.40;;;8.00;99.90;;;;;;5113602;28;20035;-74
2024/01/20 05:42:47;;;;;;;0.40;0.40;;;12.20;99.90;;;;;;5113467;28;20031;-74
2024/01/20 05:45:51;;;;;;;0.50;0.30;;;11.80;99.90;;;;;;5112453;28;20074;-74
2024/01/20 05:48:55;;;;;;;0.40;0.40;;;8.30;99.90;;;;;;5113404;28;20042;-74
2024/01/20 05:51:59;;;;;;;1.48;0.57;;;8.40;99.90;;;;;;5113427;28;20040;-74
2024/01/20 05:55:05;;;;;;;0.40;0.40;;;9.90;99.90;;;;;;5112475;28;20475;-75
2024/01/20 05:58:09;;;;;;;0.80;0.35;;;7.80;99.90;;;;;;5112568;28;20027;-73
2024/01/20 06:01:13;;;;;;;0.40;0.40;;;7.60;99.90;;;;;;5113316;28;20035;-73
2024/01/20 06:04:17;;;;;;;0.30;0.30;;;8.60;99.90;;;;;;5113152;28;20027;-73
2024/01/20 06:07:21;;;;;;;0.30;0.30;;;9.20;99.90;;;;;;5112050;28;20070;-74
2024/01/20 06:10:25;;;;;;;3.17;0.50;;;7.90;99.90;;;;;;5113126;28;20043;-73
2024/01/20 06:13:29;;;;;;;0.50;0.40;;;8.50;99.90;;;;;;5112899;28;20364;-73
2024/01/20 06:16:36;;;;;;;0.82;0.43;;;7.60;99.90;;;;;;5112652;28;20035;-73
2024/01/20 06:19:40;;;;;;;3.63;0.50;;;7.80;99.90;;;;;;5112403;28;20055;-73
2024/01/20 06:22:44;;;;;;;1.27;0.70;;;7.80;99.90;;;;;;5112872;28;20035;-73
2024/01/20 06:25:47;;;;;;;0.68;0.55;;;11.90;99.90;;;;;;5112551;28;20051;-73
2024/01/20 06:28:51;;;;;;;1.55;0.60;;;9.60;99.90;;;;;;5112238;28;20035;-74
2024/01/20 06:31:55;;;;;;;0.50;0.40;;;8.60;99.90;;;;;;5112356;28;20039;-74
2024/01/20 06:34:59;;;;;;;3.70;0.50;;;7.70;99.90;;;;;;5111710;28;20035;-72
2024/01/20 06:38:04;;;;;;;1.50;0.60;;;7.70;99.90;;;;;;5112014;28;20039;-73
2024/01/20 06:41:08;;;;;;;0.73;0.52;;;8.50;99.90;;;;;;5112243;28;20032;-73
2024/01/20 06:44:13;;;;;;;0.60;0.50;;;;;;;;;;5112295;28;20039;-73
2024/01/20 06:47:17;;;;;;;2.92;0.70;;;9.50;99.90;;;;;;5112148;28;20044;-74
2024/01/20 06:50:21;;;;;;;0.40;0.40;;;9.50;99.90;;;;;;5112280;28;20040;-73
2024/01/20 06:53:27;;;;;;;1.42;0.82;;;7.60;99.90;;;;;;5111999;28;20039;-73
2024/01/20 06:56:31;;;;;;;1.15;0.50;;;7.80;99.90;;;;;;5111085;28;20032;-74
2024/01/20 06:59:36;;;;;;;0.60;0.55;;;7.50;99.90;;;;;;5111997;28;20043;-74
2024/01/20 07:02:40;;;;;;;0.85;0.60;;;7.70;99.90;;;;;;5112155;28;20044;-75
2024/01/20 07:05:44;;;;;;;0.55;0.55;;;11.50;99.90;;;;;;5111753;28;20340;-77
2024/01/20 07:08:49;;;;;;;0.55;0.55;;;9.60;99.90;;;;;;5111940;28;20195;-80
2024/01/20 07:11:55;;;;;;;1.75;0.50;;;;;;;;;;5112405;28;20036;-82
2024/01/20 07:14:59;;;;;;;0.40;0.40;;;10.50;99.90;;;;;;5111701;28;20035;-80
2024/01/20 07:18:03;;;;;;;1.35;0.40;;;9.10;99.90;;;;;;5112508;28;20046;-73
2024/01/20 07:21:08;;;;;;;0.82;0.60;;;7.80;99.90;;;;;;5111224;28;20051;-75
2024/01/20 07:24:11;;;;;;;1.70;0.90;;;7.50;99.90;;;;;;5111764;28;20036;-72
2024/01/20 07:27:15;;;;;;;0.82;0.68;;;5.20;99.90;;;;;;5110208;28;20051;-77
2024/01/20 07:30:20;;;;;;;0.88;0.60;;;7.60;99.90;;;;;;5111452;28;20039;-74
2024/01/20 07:33:24;;;;;;;0.52;0.52;;;7.80;99.90;;;;;;5111315;28;20345;-74
2024/01/20 07:36:27;;;;;;;2.30;1.42;;;7.70;99.90;;;;;;5111205;28;20372;-74
2024/01/20 07:39:31;;;;;;;0.45;0.40;;;9.20;99.90;;;;;;5110868;28;20036;-75
2024/01/20 07:42:35;;;;;;;1.50;0.70;;;7.30;99.90;;;;;;5111258;28;20028;-73
2024/01/20 07:45:41;;;;;;;0.70;0.60;;;7.90;99.90;;;;;;5111469;28;20047;-73
2024/01/20 07:48:45;;;;;;;0.73;0.68;;;8.00;99.90;;;;;;5111344;28;20039;-75
2024/01/20 07:51:49;;;;;;;0.82;0.63;;;6.70;99.90;;;;;;5110741;28;20035;-75
2024/01/20 07:54:53;;;;;;;0.80;0.70;;;7.90;99.90;;;;;;5087235;28;20047;-76
2024/01/20 07:57:57;;;;;;;0.80;0.60;;;7.90;99.90;;;;;;5109551;28;20043;-79
2024/01/20 08:01:01;;;;;;;1.05;0.90;;;5.60;99.90;;;;;;5110589;28;20036;-75
2024/01/20 08:04:07;;;;;;;1.08;0.75;;;7.50;99.90;;;;;;5109755;28;20348;-79
2024/01/20 08:07:11;;;;;;;1.02;0.60;;;;;;;;;;5109691;28;20060;-75
2024/01/20 08:10:15;;;;;;;2.42;0.50;;;8.10;99.90;;;;;;5109930;28;20035;-75
2024/01/20 08:13:20;;;;;;;1.08;0.73;;;7.90;99.90;;;;;;5110796;28;20628;-74
2024/01/20 08:16:28;;;;;;;1.30;0.70;;;8.30;99.90;;;;;;5110749;28;20032;-74
2024/01/20 08:19:32;;;;;;;0.90;0.70;;;9.30;99.90;;;;;;5110837;28;20052;-76
2024/01/20 08:22:36;;;;;;;1.25;0.70;;;7.80;99.90;;;;;;5111072;28;20036;-72
2024/01/20 08:25:39;;;;;;;1.67;0.90;;;8.00;99.90;;;;;;5110447;28;20032;-74
2024/01/20 08:28:44;;;;;;;1.80;0.95;;;;;;;;;;5109808;28;20372;-73
2024/01/20 08:31:48;;;;;;;1.05;0.90;;;9.00;99.90;;;;;;5110708;28;20043;-71
2024/01/20 08:34:52;;;;;;;1.30;1.08;;;9.20;99.90;;;;;;5110292;28;20059;-70
2024/01/20 08:37:56;;;;;;;1.70;0.90;;;;;;;;;;5110481;28;20368;-76
2024/01/20 08:41:07;;;;;;;0.50;0.50;;;8.20;99.80;;;;;;5109561;28;20336;-81
2024/01/20 08:44:12;;;;;;;1.10;0.65;;;;;;;;;;5110502;28;20035;-77
2024/01/20 08:47:16;;;;;;;1.95;0.60;;;9.50;99.90;;;;;;5110401;28;20047;-77
2024/01/20 08:50:20;;;;;;;0.65;0.65;;;8.20;99.90;;;;;;5110446;28;20032;-74
2024/01/20 08:53:23;;;;;;;1.45;0.80;;;12.30;99.90;;;;;;5113648;28;20040;-80
2024/01/20 08:56:27;;;;;;;0.90;0.70;;;6.90;99.90;;;;;;5114281;28;20039;-77
2024/01/20 08:59:32;;;;;;;0.52;0.50;;;11.40;99.90;;;;;;5114474;28;20055;-77
2024/01/20 09:02:37;;;;;;;1.27;0.77;;;;;;;;;;5101381;28;20209;-76
2024/01/20 09:05:41;;;;;;;1.48;0.90;;;8.10;99.90;;;;;;5114085;28;20044;-73
2024/01/20 09:08:45;;;;;;;3.05;0.93;;;8.00;99.90;;;;;;5113946;28;20039;-74
2024/01/20 09:11:49;;;;;;;3.00;0.80;;;;;;;;;;5114828;28;20031;-74
2024/01/20 09:14:55;;;;;;;1.38;0.80;;;6.60;99.70;;;;;;5114260;28;20043;-74
2024/01/20 09:17:59;;;;;;;2.90;0.90;;;8.30;99.50;;;;;;5113268;28;20455;-74
2024/01/20 09:21:03;;;;;;;1.25;0.93;;;6.60;99.60;;;;;;5114420;28;20047;-81
2024/01/20 09:24:07;;;;;;;2.03;1.08;;;;;;;;;;5113785;28;20043;-78
2024/01/20 09:27:11;;;;;;;1.48;0.85;;;8.40;99.30;;;;;;5114269;28;20384;-76
2024/01/20 09:30:16;;;;;;;1.05;0.90;;;8.10;99.40;;;;;;5114668;28;20043;-79
2024/01/20 09:33:20;;;;;;;2.97;0.90;;;8.20;99.50;;;;;;5113905;28;20047;-80
2024/01/20 09:36:24;;;;;;;2.25;1.08;;;8.80;99.50;;;;;;5113677;28;20036;-76
2024/01/20 09:39:29;;;;;;;6.75;1.08;;;11.80;99.90;;;;;;5101405;28;20044;-75
2024/01/20 09:42:34;;;;;;;1.55;1.13;;;8.70;98.60;;;;;;5113301;28;20039;-77
2024/01/20 09:45:40;;;;;;;5.95;1.30;;;8.90;99.70;;;;;;5113418;28;20043;-74
2024/01/20 09:48:44;;;;;;;1.58;1.10;;;8.10;99.10;;;;;;5113392;28;20032;-72
2024/01/20 09:51:51;;;;;;;4.60;2.28;;;10.20;99.80;;;;;;5100557;28;20039;-70
2024/01/20 09:55:17;;;;;;;2.80;1.10;;;8.60;98.40;;;;;;5113040;28;20040;-70
2024/01/20 09:58:23;;;;;;;4.30;1.15;;;12.30;99.90;;;;;;5113077;28;20608;-70
2024/01/20 10:01:27;;;;;;;3.15;0.82;;;8.20;99.10;;;;;;5112535;28;20051;-70
2024/01/20 10:04:34;;;;;;;1.45;1.17;;;8.70;97.70;;;;;;5113199;28;20396;-73
2024/01/20 10:07:38;;;;;;;1.50;0.98;;;12.20;99.90;;;;;;5112809;28;20048;-70
2024/01/20 10:10:42;;;;;;;1.88;1.45;;;8.80;98.00;;;;;;5112887;28;20505;-71
2024/01/20 10:13:47;;;;;;;2.85;1.30;;;11.80;99.70;;;;;;5112119;28;20051;-73
2024/01/20 10:16:52;;;;;;;3.30;1.20;;;6.40;98.00;;;;;;5112797;28;20387;-78
2024/01/20 10:19:56;;;;;;;2.80;1.38;;;;;;;;;;5112479;28;20052;-71
2024/01/20 10:23:01;;;;;;;1.90;1.30;;;8.30;98.30;;;;;;5112611;28;20517;-75
2024/01/20 10:26:07;;;;;;;3.28;1.20;;;8.60;97.10;;;;;;5111313;28;20039;-76
2024/01/20 10:29:11;;;;;;;3.40;1.40;;;8.70;98.10;;;;;;5112463;28;20048;-69
2024/01/20 10:32:16;;;;;;;3.33;1.92;;;8.30;97.90;;;;;;5111262;28;20040;-70
2024/01/20 10:35:20;;;;;;;5.13;2.33;;;12.50;98.60;;;;;;5112555;28;20075;-72
2024/01/20 10:38:25;;;;;;;13.48;2.42;;;;;;;;;;5112127;28;20467;-70
2024/01/20 10:41:29;;;;;;;5.90;1.95;;;7.80;98.20;;;;;;5112369;28;20043;-69
2024/01/20 10:44:36;;;;;;;5.20;2.38;;;11.80;97.20;;;;;;5112247;28;20044;-70
2024/01/20 10:47:45;;;;;;;7.07;2.22;;;8.90;95.60;;;;;;5111072;28;20066;-70
2024/01/20 10:50:54;;;;;;;4.40;2.40;;;12.20;97.70;;;;;;5111937;28;20376;-70
2024/01/20 10:53:59;;;;;;;3.30;2.03;;;12.10;97.90;;;;;;5111835;28;20506;-69
2024/01/20 10:57:03;;;;;;;5.97;2.42;;;;;;;;;;5111944;28;20039;-70
2024/01/20 11:00:10;;;;;;;5.65;2.03;;;8.10;97.10;;;;;;5112197;28;20040;-69
2024/01/20 11:03:14;;;;;;;6.70;2.00;;;7.00;97.30;;;;;;5111626;28;20552;-71
2024/01/20 11:06:24;;;;;;;8.52;2.28;;;8.00;97.40;;;;;;5110697;28;20392;-70
2024/01/20 11:09:29;;;;;;;12.05;2.17;;;;;;;;;;5111092;28;20376;-68
2024/01/20 11:12:34;;;;;;;5.85;1.80;;;7.20;95.90;;;;;;5111935;28;20043;-68
2024/01/20 11:15:40;;;;;;;10.80;2.63;;;7.00;96.30;;;;;;5110027;28;20035;-69
2024/01/20 11:18:45;;;;;;;8.40;2.60;;;8.20;95.50;;;;;;5111527;28;20408;-70
2024/01/20 11:21:49;;;;;;;7.88;2.25;;;8.70;95.70;;;;;;5111373;28;20039;-69
2024/01/20 11:24:54;;;;;;;7.03;2.30;;;9.70;95.80;;;;;;5111318;28;20035;-68
2024/01/20 11:27:59;;;;;;;6.93;2.80;;;7.60;94.30;;;;;;5111416;28;20483;-69
2024/01/20 11:31:03;;;;;;;7.85;2.38;;;7.80;95.40;;;;;;5110531;28;20495;-69
2024/01/20 11:34:07;;;;;;;6.05;2.40;;;8.00;95.50;;;;;;5111726;28;20035;-69
2024/01/20 11:37:12;;;;;;;7.85;2.33;;;9.90;92.80;;;;;;5111531;28;20043;-69
2024/01/20 11:40:17;;;;;;;6.72;2.45;;;9.20;94.50;;;;;;5111416;28;20043;-68
2024/01/20 11:43:21;;;;;;;12.45;2.90;;;10.90;94.30;;;;;;5111206;28;20031;-71
2024/01/20 11:46:25;;;;;;;11.35;3.42;;;9.30;91.80;;;;;;5111031;28;20240;-68
2024/01/20 11:49:34;;;;;;;9.20;2.78;;;7.80;93.70;;;;;;5111169;28;20043;-69
2024/01/20 11:52:38;;;;;;;14.23;3.08;;;;;;;;;;5110279;28;20041;-69
2024/01/20 11:55:58;;;;;;;8.00;3.05;;;10.50;94.80;;;;;;5111048;28;20031;-69
2024/01/20 11:59:02;;;;;;;10.80;3.22;;;7.40;94.10;;;;;;5111377;28;20050;-70
2024/01/20 12:02:06;;;;;;;18.00;3.38;;;9.80;94.60;;;;;;5111370;28;20050;-68
2024/01/20 12:05:10;;;;;;;10.30;2.88;;;7.10;94.00;;;;;;5111124;28;20426;-70
2024/01/20 12:08:15;;;;;;;7.50;3.30;;;9.80;92.10;;;;;;5110842;28;20046;-69
2024/01/20 12:11:21;;;;;;;17.48;6.60;;;9.30;92.30;;;;;;5111132;28;20040;-70
2024/01/20 12:14:26;;;;;;;7.28;2.83;;;8.60;94.20;;;;;;5111282;28;20050;-70
2024/01/20 12:17:31;;;;;;;9.23;2.72;;;7.30;94.20;;;;;;5111183;28;20043;-68
2024/01/20 12:20:38;;;;;;;7.53;3.30;;;9.30;92.30;;;;;;5111455;28;20051;-69
2024/01/20 12:23:42;;;;;;;12.05;3.70;;;7.30;93.80;;;;;;5111500;28;20043;-72
2024/01/20 12:26:46;;;;;;;12.40;2.95;;;10.20;94.80;;;;;;5114155;28;20047;-69
2024/01/20 12:29:52;;;;;;;13.43;3.45;;;;;;;;;;5114792;28;20042;-68
2024/01/20 12:32:56;;;;;;;7.43;3.25;;;9.40;92.40;;;;;;5114766;28;20043;-69
2024/01/20 12:36:01;;;;;;;10.38;3.55;;;8.60;94.50;;;;;;5114027;28;20047;-69
2024/01/20 12:39:07;;;;;;;10.20;4.65;;;;;;;;;;5113914;28;20047;-69
2024/01/20 12:42:11;;;;;;;10.23;3.50;;;10.60;94.30;;;;;;5114750;28;20039;-69
2024/01/20 12:45:15;;;;;;;12.82;3.80;;;9.00;94.00;;;;;;5114720;28;20046;-68
2024/01/20 12:48:20;;;;;;;9.75;3.13;;;7.60;93.50;;;;;;5114586;28;20055;-69
2024/01/20 12:51:24;;;;;;;9.10;3.35;;;8.30;93.70;;;;;;5114433;28;20027;-71
2024/01/20 12:54:28;;;;;;;10.40;2.65;;;7.80;93.50;;;;;;5114883;28;20040;-70
2024/01/20 12:57:33;;;;;;;8.85;3.30;;;;;;;;;;5114435;28;20038;-70
2024/01/20 13:00:38;;;;;;;10.68;3.08;;;8.20;93.80;;;;;;5114491;28;20476;-70
2024/01/20 13:03:41;;;;;;;9.35;3.22;;;8.70;93.80;;;;;;5114199;28;20051;-70
2024/01/20 13:06:45;;;;;;;6.30;2.60;;;7.90;93.50;;;;;;5114029;28;20513;-70
2024/01/20 13:09:49;;;;;;;11.55;3.40;;;8.80;93.90;;;;;;5114444;28;20036;-71
2024/01/20 13:12:53;;;;;;;9.05;2.88;;;7.60;93.40;;;;;;5114283;28;20047;-71
2024/01/20 13:15:57;;;;;;;8.18;3.33;;;13.30;95.00;;;;;;5113796;28;20475;-71
2024/01/20 13:19:01;;;;;;;20.52;10.00;;;;;;;;;;5113587;28;20078;-73
2024/01/20 13:22:05;;;;;;;9.85;3.30;;;10.40;94.60;;;;;;5113883;28;20043;-72
2024/01/20 13:25:09;;;;;;;7.60;3.65;;;10.90;94.30;;;;;;5113357;28;20047;-69
2024/01/20 13:28:16;;;;;;;9.93;4.68;;;8.20;93.00;;;;;;5112650;28;20415;-71
2024/01/20 13:31:20;;;;;;;12.55;3.83;;;13.10;94.00;;;;;;5114024;28;20043;-75
2024/01/20 13:34:24;;;;;;;8.40;3.20;;;8.00;93.20;;;;;;5113693;28;20046;-70
2024/01/20 13:37:29;;;;;;;10.68;3.47;;;7.50;92.70;;;;;;5113077;28;20393;-72
2024/01/20 13:40:33;;;;;;;14.65;4.00;;;12.60;94.40;;;;;;5112953;28;20054;-73
2024/01/20 13:43:37;;;;;;;10.60;3.03;;;7.90;92.50;;;;;;5113588;28;20042;-73
2024/01/20 13:46:41;;;;;;;9.68;3.25;;;8.30;92.60;;;;;;5112623;28;20585;-72
2024/01/20 13:49:45;;;;;;;12.85;3.10;;;13.00;93.50;;;;;;5113850;28;20051;-72
2024/01/20 13:52:51;;;;;;;10.75;3.08;;;7.20;92.00;;;;;;5112361;28;20046;-72
2024/01/20 13:55:55;;;;;;;12.35;3.80;;;7.40;91.40;;;;;;5112427;28;20039;-72
2024/01/20 13:58:59;;;;;;;7.30;2.90;;;8.90;91.50;;;;;;5113404;28;20047;-73
2024/01/20 14:02:04;;;;;;;11.00;3.17;;;;;;;;;;5112917;28;20031;-73
2024/01/20 14:05:08;;;;;;;7.15;3.15;;;7.50;89.50;;;;;;5112127;28;20046;-73
2024/01/20 14:08:13;;;;;;;6.50;2.88;;;10.20;91.80;;;;;;5111935;28;20496;-72
2024/01/20 14:11:17;;;;;;;9.13;3.50;;;13.60;92.30;;;;;;5111821;28;20395;-73
2024/01/20 14:14:21;;;;;;;7.07;2.47;;;12.30;91.80;;;;;;5112685;28;20046;-72
2024/01/20 14:17:25;;;;;;;13.10;3.20;;;8.50;90.50;;;;;;5111961;28;20035;-73
2024/01/20 14:20:29;;;;;;;6.47;3.33;;;;;;;;;;5111759;28;20258;-69
2024/01/20 14:23:33;;;;;;;8.05;3.60;;;6.90;90.30;;;;;;5110626;28;20059;-70
2024/01/20 14:26:37;;;;;;;9.88;3.35;;;9.40;89.40;;;;;;5109779;28;20039;-71
2024/01/20 14:29:42;;;;;;;14.32;4.85;;;;;;;;;;5110778;28;20044;-70
2024/01/20 14:32:46;;;;;;;7.18;3.10;;;;;;;;;;5110962;28;20399;-73
2024/01/20 14:35:51;;;;;;;6.72;2.50;;;12.10;91.10;;;;;;5098076;28;20047;-70
2024/01/20 14:38:54;;;;;;;8.75;3.50;;;8.10;90.80;;;;;;5112467;28;20110;-69
2024/01/20 14:41:59;;;;;;;9.43;3.40;;;6.90;86.40;;;;;;5112187;28;20039;-71
2024/01/20 14:45:04;;;;;;;8.73;3.17;;;12.90;92.10;;;;;;5111906;28;20043;-73
2024/01/20 14:48:08;;;;;;;10.20;1.92;;;;;;;;;;5111109;28;20074;-78
2024/01/20 14:51:12;;;;;;;11.43;4.00;;;6.40;90.40;;;;;;5112210;28;20035;-78
2024/01/20 14:54:16;;;;;;;11.52;3.67;;;6.70;86.40;;;;;;5110232;28;20042;-77
2024/01/20 14:57:21;;;;;;;8.25;3.60;;;;;;;;;;5111481;28;20407;-78
2024/01/20 15:00:25;;;;;;;9.23;3.20;;;;;;;;;;5112386;28;20035;-78
2024/01/20 15:03:29;;;;;;;6.28;2.60;;;9.00;85.60;;;;;;5111326;28;20424;-77
2024/01/20 15:06:33;;;;;;;5.85;2.90;;;;;;;;;;5111918;28;20039;-78
2024/01/20 15:09:37;;;;;;;6.88;3.85;;;7.10;89.00;;;;;;5111872;28;20039;-78
2024/01/20 15:12:42;;;;;;;14.05;4.43;;;6.90;90.00;;;;;;5112326;28;20044;-78
2024/01/20 15:15:46;;;;;;;13.38;4.90;;;12.40;91.40;;;;;;5111356;28;20427;-79
2024/01/20 15:18:50;;;;;;;8.98;4.05;;;12.70;90.50;;;;;;5110944;28;20062;-81
2024/01/20 15:21:54;;;;;;;9.60;3.88;;;12.40;87.00;;;;;;5111254;28;20074;-78
2024/01/20 15:24:57;;;;;;;12.02;4.78;;;9.70;85.10;;;;;;5111798;28;20054;-77
2024/01/20 15:28:02;;;;;;;7.72;3.65;;;7.20;87.20;;;;;;5111471;28;20399;-78
2024/01/20 15:31:06;;;;;;;9.10;3.40;;;8.40;87.10;;;;;;5110715;28;20039;-80
2024/01/20 15:34:10;;;;;;;11.50;3.80;;;7.20;87.90;;;;;;5110417;28;20032;-78
2024/01/20 15:37:14;;;;;;;9.25;4.50;;;10.50;89.70;;;;;;5110691;28;20042;-78
2024/01/20 15:40:18;;;;;;;12.90;3.67;;;12.10;88.80;;;;;;5099144;28;20043;-77
2024/01/20 15:43:22;;;;;;;15.93;5.05;;;7.70;87.10;;;;;;5110764;28;20051;-78
2024/01/20 15:46:26;;;;;;;16.00;6.70;;;12.60;89.70;;;;;;5110414;28;20118;-79
2024/01/20 15:49:30;;;;;;;10.80;4.40;;;9.20;88.00;;;;;;5111658;28;20541;-78
2024/01/20 15:52:35;;;;;;;9.02;3.42;;;13.10;89.40;;;;;;5098974;28;20035;-77
2024/01/20 15:55:38;;;;;;;47.28;18.70;;;7.10;87.90;;;;;;5110527;28;20047;-77
2024/01/20 15:58:44;;;;;;;10.43;4.05;;;7.10;87.60;;;;;;5111498;28;20070;-79
2024/01/20 16:01:48;;;;;;;10.40;4.50;;;6.60;87.90;;;;;;5113856;28;20375;-78
2024/01/20 16:04:51;;;;;;;15.15;4.93;;;11.60;87.40;;;;;;5114322;28;20047;-78
2024/01/20 16:07:55;;;;;;;12.43;4.55;;;7.60;88.30;;;;;;5114357;28;20506;-78
2024/01/20 16:10:59;;;;;;;14.15;5.57;;;8.30;89.30;;;;;;5115487;28;20063;-78
2024/01/20 16:14:03;;;;;;;6.25;4.07;;;7.20;86.90;;;;;;5114631;28;20152;-77
2024/01/20 16:17:07;;;;;;;9.00;4.55;;;11.80;88.80;;;;;;5114511;28;20479;-78
2024/01/20 16:20:12;;;;;;;10.20;4.57;;;13.00;89.80;;;;;;5114078;28;20074;-77
2024/01/20 16:23:18;;;;;;;13.10;6.00;;;;;;;;;;5114307;28;20043;-78
2024/01/20 16:26:22;;;;;;;10.70;4.05;;;7.70;87.90;;;;;;5113846;28;20036;-77
2024/01/20 16:29:26;;;;;;;6.45;3.83;;;7.80;87.70;;;;;;5115032;28;20051;-78
2024/01/20 16:32:29;;;;;;;17.00;4.55;;;8.70;87.40;;;;;;5114842;28;20149;-78